Huvudsida
METAR-TAF:

METAR-TAF

Flygplatser :

Berlin, Tyskland

Berlin-Tegels flygplats

latitud: 52-34N, longitud: 013-19E, höjd: 37 m

Aktuellt väderrapport

Denna rapport gjordes för 16 timmar och 27 minuter sedan, klockan 14:50 UTC
Vind 9 kt från ost/nordost, varierande mellan nord/nordost och ost/sydost
Temperatur 3°C
Fuktighet 52%
Tryck 1020 hPa
Sikt 10 km eller mer
Få moln på en höjd av 3600 ft

METAR: EDDT 201450Z 07009KT 030V120 9999 FEW036 03/M06 Q1020 NOSIG

Tid: 08:17 (07:17 UTC)

Väderprognos

Denna rapport gjordes för 20 timmar och 17 minuter sedan, klockan 11:00 UTC
Prognos gäller från 20 kl. 12 UTC till 21 kl. 12 UTC
Vind 8 kt från ost
Sikt 10 km eller mer
Inga moln under 1 500 m eller inga cumulonimbus
Blir
från 20 kl. 16 UTC till 20 kl. 18 UTC
Vind 5 kt från nordost

TAF: EDDT 201100Z 2012/2112 10008KT CAVOK BECMG 2016/2018 04005KT

Aktuella väderrapporter och prognoser från 4000 flygplatser (METAR- och TAF-rapporter).

De tillgängliga stationerna syns som gula och röda prickar på kartan.

För musen över prickarna för att se namnen på stationerna.

Klicka sedan för att få väderrapporter och prognoser.

För att ändra kartan: Klicka på de gröna knapparna med ett svart kors på för att zooma in; den gröna knappen med ett streck på för att zooma ut; eller på de gröna pilarna för angränsande kartor.


METAR-TAF: